sensor_id;sensor_type;location;lat;lon;timestamp;pressure;altitude;pressure_sealevel;temperature;humidity
8637;BME280;4356;49.068;8.658;2022-10-16T00:01:06;99669.97;;;22.34;49.32
8637;BME280;4356;49.068;8.658;2022-10-16T00:03:32;99658.44;;;22.32;49.56
8637;BME280;4356;49.068;8.658;2022-10-16T00:05:59;99669.13;;;22.34;49.15
8637;BME280;4356;49.068;8.658;2022-10-16T00:08:25;99664.69;;;22.28;49.20
8637;BME280;4356;49.068;8.658;2022-10-16T00:10:51;99670.16;;;22.28;49.13
8637;BME280;4356;49.068;8.658;2022-10-16T00:13:17;99676.22;;;22.30;49.15
8637;BME280;4356;49.068;8.658;2022-10-16T00:15:43;99678.69;;;22.31;49.68
8637;BME280;4356;49.068;8.658;2022-10-16T00:18:10;99684.19;;;22.31;49.48
8637;BME280;4356;49.068;8.658;2022-10-16T00:20:35;99678.69;;;22.31;49.31
8637;BME280;4356;49.068;8.658;2022-10-16T00:23:03;99683.34;;;22.31;49.38
8637;BME280;4356;49.068;8.658;2022-10-16T00:25:29;99680.84;;;22.29;49.44
8637;BME280;4356;49.068;8.658;2022-10-16T00:27:54;99676.44;;;22.28;49.31
8637;BME280;4356;49.068;8.658;2022-10-16T00:30:20;99671.22;;;22.27;49.00
8637;BME280;4356;49.068;8.658;2022-10-16T00:32:45;99669.66;;;22.31;48.88
8637;BME280;4356;49.068;8.658;2022-10-16T00:35:11;99665.75;;;22.27;48.96
8637;BME280;4356;49.068;8.658;2022-10-16T00:37:36;99669.31;;;22.27;49.00
8637;BME280;4356;49.068;8.658;2022-10-16T00:40:02;99671.81;;;22.29;48.88
8637;BME280;4356;49.068;8.658;2022-10-16T00:42:28;99670.66;;;22.25;48.84
8637;BME280;4356;49.068;8.658;2022-10-16T00:44:56;99675.63;;;22.28;49.08
8637;BME280;4356;49.068;8.658;2022-10-16T00:49:55;99677.03;;;22.30;49.63
8637;BME280;4356;49.068;8.658;2022-10-16T00:52:22;99669.31;;;22.27;49.55
8637;BME280;4356;49.068;8.658;2022-10-16T00:54:49;99672.06;;;22.27;49.60
8637;BME280;4356;49.068;8.658;2022-10-16T00:57:15;99681.13;;;22.28;49.76
8637;BME280;4356;49.068;8.658;2022-10-16T00:59:42;99668.22;;;22.28;49.94
8637;BME280;4356;49.068;8.658;2022-10-16T01:02:11;99674.81;;;22.27;50.08
8637;BME280;4356;49.068;8.658;2022-10-16T01:04:41;99671.22;;;22.27;50.08
8637;BME280;4356;49.068;8.658;2022-10-16T01:10:02;99689.59;;;22.26;50.03
8637;BME280;4356;49.068;8.658;2022-10-16T01:12:47;99697.78;;;22.26;49.94
8637;BME280;4356;49.068;8.658;2022-10-16T01:21:01;99694.97;;;22.21;48.94
8637;BME280;4356;49.068;8.658;2022-10-16T01:23:51;99705.69;;;22.23;49.27
8637;BME280;4356;49.068;8.658;2022-10-16T01:26:31;99702.69;;;22.24;48.90
8637;BME280;4356;49.068;8.658;2022-10-16T01:29:15;99704.59;;;22.24;49.36
8637;BME280;4356;49.068;8.658;2022-10-16T01:31:46;99702.38;;;22.21;48.99
8637;BME280;4356;49.068;8.658;2022-10-16T01:34:17;99697.94;;;22.20;49.23
8637;BME280;4356;49.068;8.658;2022-10-16T01:36:52;99694.97;;;22.21;49.47
8637;BME280;4356;49.068;8.658;2022-10-16T01:39:22;99706.50;;;22.23;49.63
8637;BME280;4356;49.068;8.658;2022-10-16T01:41:55;99682.63;;;22.19;49.49
8637;BME280;4356;49.068;8.658;2022-10-16T01:44:26;99695.53;;;22.23;49.73
8637;BME280;4356;49.068;8.658;2022-10-16T01:46:55;99683.78;;;22.23;49.28
8637;BME280;4356;49.068;8.658;2022-10-16T01:49:23;99689.25;;;22.23;49.64
8637;BME280;4356;49.068;8.658;2022-10-16T01:51:54;99690.56;;;22.20;49.91
8637;BME280;4356;49.068;8.658;2022-10-16T01:54:23;99691.41;;;22.21;50.00
8637;BME280;4356;49.068;8.658;2022-10-16T01:56:51;99676.56;;;22.17;49.65
8637;BME280;4356;49.068;8.658;2022-10-16T01:59:20;99682.38;;;22.20;49.74
8637;BME280;4356;49.068;8.658;2022-10-16T02:01:52;99684.84;;;22.22;49.76
8637;BME280;4356;49.068;8.658;2022-10-16T02:06:55;99680.94;;;22.18;49.70
8637;BME280;4356;49.068;8.658;2022-10-16T02:09:21;99677.16;;;22.19;49.75
8637;BME280;4356;49.068;8.658;2022-10-16T02:11:47;99690.84;;;22.19;49.85
8637;BME280;4356;49.068;8.658;2022-10-16T02:14:15;99689.16;;;22.18;50.02
8637;BME280;4356;49.068;8.658;2022-10-16T02:16:45;99693.31;;;22.20;50.12
8637;BME280;4356;49.068;8.658;2022-10-16T02:19:15;99690.31;;;22.22;50.06
8637;BME280;4356;49.068;8.658;2022-10-16T02:21:54;99691.41;;;22.21;49.84
8637;BME280;4356;49.068;8.658;2022-10-16T02:24:24;99697.69;;;22.21;49.59
8637;BME280;4356;49.068;8.658;2022-10-16T02:26:57;99681.13;;;22.11;49.74
8637;BME280;4356;49.068;8.658;2022-10-16T02:29:26;99679.47;;;22.10;49.23
8637;BME280;4356;49.068;8.658;2022-10-16T02:31:56;99698.78;;;22.20;49.22
8637;BME280;4356;49.068;8.658;2022-10-16T02:34:25;99705.59;;;22.18;49.15
8637;BME280;4356;49.068;8.658;2022-10-16T02:36:52;99706.41;;;22.18;49.22
8637;BME280;4356;49.068;8.658;2022-10-16T02:39:19;99705.84;;;22.16;49.04
8637;BME280;4356;49.068;8.658;2022-10-16T02:41:45;99713.78;;;22.18;48.72
8637;BME280;4356;49.068;8.658;2022-10-16T02:44:11;99721.44;;;22.16;48.81
8637;BME280;4356;49.068;8.658;2022-10-16T02:46:36;99694.31;;;22.14;48.70
8637;BME280;4356;49.068;8.658;2022-10-16T02:49:02;99704.53;;;22.19;48.67
8637;BME280;4356;49.068;8.658;2022-10-16T02:51:27;99702.84;;;22.18;48.91
8637;BME280;4356;49.068;8.658;2022-10-16T02:53:53;99708.31;;;22.18;48.69
8637;BME280;4356;49.068;8.658;2022-10-16T02:56:19;99711.06;;;22.18;49.07
8637;BME280;4356;49.068;8.658;2022-10-16T02:58:44;99703.94;;;22.17;49.15
8637;BME280;4356;49.068;8.658;2022-10-16T03:01:10;99710.25;;;22.17;49.28
8637;BME280;4356;49.068;8.658;2022-10-16T03:03:38;99714.63;;;22.18;49.37
8637;BME280;4356;49.068;8.658;2022-10-16T03:06:04;99711.06;;;22.18;49.30
8637;BME280;4356;49.068;8.658;2022-10-16T03:08:31;99720.38;;;22.17;49.55
8637;BME280;4356;49.068;8.658;2022-10-16T03:10:56;99723.34;;;22.15;49.14
8637;BME280;4356;49.068;8.658;2022-10-16T03:13:22;99711.31;;;22.16;49.09
8637;BME280;4356;49.068;8.658;2022-10-16T03:15:47;99724.16;;;22.16;49.20
8637;BME280;4356;49.068;8.658;2022-10-16T03:18:13;99725.25;;;22.15;48.96
8637;BME280;4356;49.068;8.658;2022-10-16T03:20:38;99729.09;;;22.14;48.71
8637;BME280;4356;49.068;8.658;2022-10-16T03:23:04;99724.66;;;22.13;48.74
8637;BME280;4356;49.068;8.658;2022-10-16T03:25:29;99726.09;;;22.15;48.71
8637;BME280;4356;49.068;8.658;2022-10-16T03:27:55;99731.56;;;22.15;49.20
8637;BME280;4356;49.068;8.658;2022-10-16T03:30:21;99735.38;;;22.14;49.07
8637;BME280;4356;49.068;8.658;2022-10-16T03:32:46;99726.56;;;22.12;49.23
8637;BME280;4356;49.068;8.658;2022-10-16T03:35:12;99721.94;;;22.13;48.99
8637;BME280;4356;49.068;8.658;2022-10-16T03:37:38;99726.56;;;22.12;49.23
8637;BME280;4356;49.068;8.658;2022-10-16T03:40:04;99706.44;;;22.02;49.26
8637;BME280;4356;49.068;8.658;2022-10-16T03:42:30;99717.78;;;22.10;49.20
8637;BME280;4356;49.068;8.658;2022-10-16T03:44:56;99715.03;;;22.10;49.27
8637;BME280;4356;49.068;8.658;2022-10-16T03:47:21;99720.50;;;22.10;49.37
8637;BME280;4356;49.068;8.658;2022-10-16T03:49:49;99723.25;;;22.10;49.20
8637;BME280;4356;49.068;8.658;2022-10-16T03:52:15;99729.81;;;22.09;49.19
8637;BME280;4356;49.068;8.658;2022-10-16T03:54:40;99734.44;;;22.09;49.05
8637;BME280;4356;49.068;8.658;2022-10-16T03:57:06;99733.13;;;22.11;49.00
8637;BME280;4356;49.068;8.658;2022-10-16T03:59:31;99733.13;;;22.11;49.03
8637;BME280;4356;49.068;8.658;2022-10-16T04:01:57;99704.19;;;21.99;48.84
8637;BME280;4356;49.068;8.658;2022-10-16T04:04:22;99716.97;;;22.10;49.04
8637;BME280;4356;49.068;8.658;2022-10-16T04:06:49;99716.13;;;22.09;49.06
8637;BME280;4356;49.068;8.658;2022-10-16T04:09:14;99726.25;;;22.09;48.92
8637;BME280;4356;49.068;8.658;2022-10-16T04:11:40;99717.22;;;22.08;48.80
8637;BME280;4356;49.068;8.658;2022-10-16T04:14:06;99722.91;;;22.07;48.66
8637;BME280;4356;49.068;8.658;2022-10-16T04:16:31;99722.13;;;22.06;48.73
8637;BME280;4356;49.068;8.658;2022-10-16T04:18:57;99716.66;;;22.06;48.65
8637;BME280;4356;49.068;8.658;2022-10-16T04:21:22;99722.91;;;22.07;48.58
8637;BME280;4356;49.068;8.658;2022-10-16T04:23:48;99729.50;;;22.06;48.73
8637;BME280;4356;49.068;8.658;2022-10-16T04:26:14;99730.31;;;22.06;48.95
8637;BME280;4356;49.068;8.658;2022-10-16T04:28:40;99745.91;;;22.06;49.14
8637;BME280;4356;49.068;8.658;2022-10-16T04:31:06;99750.28;;;22.07;49.01
8637;BME280;4356;49.068;8.658;2022-10-16T04:33:32;99753.59;;;22.09;49.20
8637;BME280;4356;49.068;8.658;2022-10-16T04:36:02;99752.47;;;22.05;49.27
8637;BME280;4356;49.068;8.658;2022-10-16T04:38:28;99756.59;;;22.07;48.97
8637;BME280;4356;49.068;8.658;2022-10-16T04:40:54;99756.00;;;22.05;49.20
8637;BME280;4356;49.068;8.658;2022-10-16T04:43:20;99767.53;;;22.07;48.94
8637;BME280;4356;49.068;8.658;2022-10-16T04:45:46;99768.88;;;22.05;48.92
8637;BME280;4356;49.068;8.658;2022-10-16T04:48:12;99767.81;;;22.06;48.67
8637;BME280;4356;49.068;8.658;2022-10-16T04:50:37;99759.00;;;22.04;48.61
8637;BME280;4356;49.068;8.658;2022-10-16T04:53:03;99768.88;;;22.05;48.97
8637;BME280;4356;49.068;8.658;2022-10-16T04:55:29;99772.44;;;22.05;48.59
8637;BME280;4356;49.068;8.658;2022-10-16T04:57:54;99771.84;;;22.03;48.79
8637;BME280;4356;49.068;8.658;2022-10-16T05:00:20;99776.00;;;22.06;48.73
8637;BME280;4356;49.068;8.658;2022-10-16T05:02:46;99763.63;;;22.03;48.75
8637;BME280;4356;49.068;8.658;2022-10-16T05:05:11;99759.25;;;22.02;48.88
8637;BME280;4356;49.068;8.658;2022-10-16T05:07:37;99763.06;;;22.01;48.73
8637;BME280;4356;49.068;8.658;2022-10-16T05:10:03;99773.53;;;22.04;48.78
8637;BME280;4356;49.068;8.658;2022-10-16T05:12:28;99766.03;;;22.00;48.95
8637;BME280;4356;49.068;8.658;2022-10-16T05:14:54;99765.56;;;22.03;48.95
8637;BME280;4356;49.068;8.658;2022-10-16T05:17:24;99772.94;;;22.02;48.67
8637;BME280;4356;49.068;8.658;2022-10-16T05:19:50;99757.84;;;22.00;48.63
8637;BME280;4356;49.068;8.658;2022-10-16T05:22:16;99760.00;;;21.98;48.50
8637;BME280;4356;49.068;8.658;2022-10-16T05:24:41;99762.25;;;22.01;48.61
8637;BME280;4356;49.068;8.658;2022-10-16T05:27:07;99763.31;;;22.00;48.69
8637;BME280;4356;49.068;8.658;2022-10-16T05:29:32;99773.44;;;21.99;48.58
8637;BME280;4356;49.068;8.658;2022-10-16T05:31:58;99777.81;;;22.00;48.48
8637;BME280;4356;49.068;8.658;2022-10-16T05:34:23;99782.72;;;21.98;48.68
8637;BME280;4356;49.068;8.658;2022-10-16T05:36:49;99780.22;;;21.97;48.51
8637;BME280;4356;49.068;8.658;2022-10-16T05:39:16;99789.88;;;21.99;48.76
8637;BME280;4356;49.068;8.658;2022-10-16T05:41:42;99781.06;;;21.97;48.36
8637;BME280;4356;49.068;8.658;2022-10-16T05:44:08;99786.53;;;21.97;48.62
8637;BME280;4356;49.068;8.658;2022-10-16T05:46:33;99786.28;;;21.99;48.68
8637;BME280;4356;49.068;8.658;2022-10-16T05:48:59;99786.28;;;21.99;48.72
8637;BME280;4356;49.068;8.658;2022-10-16T05:51:24;99788.19;;;21.98;48.78
8637;BME280;4356;49.068;8.658;2022-10-16T05:53:51;99798.06;;;21.99;49.20
8637;BME280;4356;49.068;8.658;2022-10-16T05:56:17;99800.22;;;21.97;49.18
8637;BME280;4356;49.068;8.658;2022-10-16T05:58:43;99799.97;;;21.99;48.99
8637;BME280;4356;49.068;8.658;2022-10-16T06:01:17;99795.81;;;21.96;49.20
8637;BME280;4356;49.068;8.658;2022-10-16T06:03:43;99802.97;;;21.97;48.79
8637;BME280;4356;49.068;8.658;2022-10-16T06:06:11;99782.72;;;21.98;49.11
8637;BME280;4356;49.068;8.658;2022-10-16T06:08:38;99791.44;;;21.95;48.67
8637;BME280;4356;49.068;8.658;2022-10-16T06:11:06;99793.66;;;21.98;49.03
8637;BME280;4356;49.068;8.658;2022-10-16T06:13:32;99780.41;;;21.90;48.90
8637;BME280;4356;49.068;8.658;2022-10-16T06:15:59;99777.81;;;21.84;48.83
8637;BME280;4356;49.068;8.658;2022-10-16T06:18:26;99784.78;;;21.91;48.63
8637;BME280;4356;49.068;8.658;2022-10-16T06:20:52;99795.56;;;21.98;48.87
8637;BME280;4356;49.068;8.658;2022-10-16T06:23:18;99800.22;;;21.97;48.92
8637;BME280;4356;49.068;8.658;2022-10-16T06:25:44;99817.94;;;21.95;48.74
8637;BME280;4356;49.068;8.658;2022-10-16T06:28:09;99817.94;;;21.95;48.34
8637;BME280;4356;49.068;8.658;2022-10-16T06:30:35;99816.66;;;21.97;48.36
8637;BME280;4356;49.068;8.658;2022-10-16T06:33:00;99808.91;;;21.94;48.55
8637;BME280;4356;49.068;8.658;2022-10-16T06:35:26;99818.78;;;21.95;48.54
8637;BME280;4356;49.068;8.658;2022-10-16T06:37:53;99822.00;;;21.92;48.85
8637;BME280;4356;49.068;8.658;2022-10-16T06:40:18;99834.38;;;21.95;48.77
8637;BME280;4356;49.068;8.658;2022-10-16T06:42:44;99830.56;;;21.96;48.73
8637;BME280;4356;49.068;8.658;2022-10-16T06:45:10;99841.53;;;21.96;48.64
8637;BME280;4356;49.068;8.658;2022-10-16T06:47:35;99839.84;;;21.95;48.69
8637;BME280;4356;49.068;8.658;2022-10-16T06:50:01;99832.94;;;21.92;48.77
8637;BME280;4356;49.068;8.658;2022-10-16T06:52:30;99841.53;;;21.96;48.74
8637;BME280;4356;49.068;8.658;2022-10-16T06:54:55;99848.31;;;21.93;48.67
8637;BME280;4356;49.068;8.658;2022-10-16T06:57:21;99848.31;;;21.93;48.60
8637;BME280;4356;49.068;8.658;2022-10-16T06:59:46;99841.06;;;21.87;48.65
8637;BME280;4356;49.068;8.658;2022-10-16T07:02:12;99857.69;;;21.97;48.60
8637;BME280;4356;49.068;8.658;2022-10-16T07:04:37;99846.63;;;21.92;48.72
8637;BME280;4356;49.068;8.658;2022-10-16T07:07:03;99860.88;;;21.94;48.56
8637;BME280;4356;49.068;8.658;2022-10-16T07:09:28;99853.53;;;21.95;48.56
8637;BME280;4356;49.068;8.658;2022-10-16T07:11:54;99837.53;;;21.87;48.65
8637;BME280;4356;49.068;8.658;2022-10-16T07:14:20;99859.00;;;21.95;48.53
8637;BME280;4356;49.068;8.658;2022-10-16T07:16:48;99859.00;;;21.95;48.62
8637;BME280;4356;49.068;8.658;2022-10-16T07:19:14;99852.69;;;21.94;48.52
8637;BME280;4356;49.068;8.658;2022-10-16T07:21:42;99856.50;;;21.93;48.36
8637;BME280;4356;49.068;8.658;2022-10-16T07:24:14;99846.41;;;21.94;48.59
8637;BME280;4356;49.068;8.658;2022-10-16T07:26:41;99863.41;;;21.96;48.38
8637;BME280;4356;49.068;8.658;2022-10-16T07:29:16;99863.97;;;21.98;48.56
8637;BME280;4356;49.068;8.658;2022-10-16T07:31:43;99870.53;;;21.97;48.44
8637;BME280;4356;49.068;8.658;2022-10-16T07:34:10;99876.84;;;21.97;48.54
8637;BME280;4356;49.068;8.658;2022-10-16T07:36:35;99873.53;;;21.95;48.27
8637;BME280;4356;49.068;8.658;2022-10-16T07:39:01;99874.56;;;21.94;48.87
8637;BME280;4356;49.068;8.658;2022-10-16T07:41:27;99879.81;;;21.96;48.97
8637;BME280;4356;49.068;8.658;2022-10-16T07:43:54;99890.88;;;22.01;49.11
8637;BME280;4356;49.068;8.658;2022-10-16T07:46:21;99892.75;;;22.00;48.91
8637;BME280;4356;49.068;8.658;2022-10-16T07:48:47;99900.13;;;22.00;48.64
8637;BME280;4356;49.068;8.658;2022-10-16T07:51:16;99890.03;;;22.00;48.61
8637;BME280;4356;49.068;8.658;2022-10-16T07:53:42;99895.50;;;22.00;48.82
8637;BME280;4356;49.068;8.658;2022-10-16T07:56:08;99895.25;;;22.02;48.92
8637;BME280;4356;49.068;8.658;2022-10-16T07:58:35;99904.28;;;22.02;48.72
8637;BME280;4356;49.068;8.658;2022-10-16T08:01:05;99904.88;;;22.04;49.12
8637;BME280;4356;49.068;8.658;2022-10-16T08:03:31;99919.16;;;22.06;48.69
8637;BME280;4356;49.068;8.658;2022-10-16T08:05:57;99925.44;;;22.07;48.63
8637;BME280;4356;49.068;8.658;2022-10-16T08:08:23;99921.91;;;22.06;48.47
8637;BME280;4356;49.068;8.658;2022-10-16T08:10:48;99929.00;;;22.07;48.64
8637;BME280;4356;49.068;8.658;2022-10-16T08:13:15;99928.75;;;22.09;48.92
8637;BME280;4356;49.068;8.658;2022-10-16T08:15:42;99917.13;;;22.02;48.66
8637;BME280;4356;49.068;8.658;2022-10-16T08:18:09;99920.56;;;22.09;48.68
8637;BME280;4356;49.068;8.658;2022-10-16T08:20:35;99907.63;;;22.04;48.86
8637;BME280;4356;49.068;8.658;2022-10-16T08:23:01;99920.88;;;22.12;48.94
8637;BME280;4356;49.068;8.658;2022-10-16T08:25:27;99909.84;;;22.07;48.95
8637;BME280;4356;49.068;8.658;2022-10-16T08:27:53;99910.78;;;22.13;49.13
8637;BME280;4356;49.068;8.658;2022-10-16T08:30:20;99916.09;;;22.19;49.75
8637;BME280;4356;49.068;8.658;2022-10-16T08:32:46;99910.63;;;22.19;49.64
8637;BME280;4356;49.068;8.658;2022-10-16T08:35:12;99911.53;;;22.25;49.15
8637;BME280;4356;49.068;8.658;2022-10-16T08:37:39;99920.09;;;22.28;48.55
8637;BME280;4356;49.068;8.658;2022-10-16T08:40:06;99922.28;;;22.26;48.70
8637;BME280;4356;49.068;8.658;2022-10-16T08:50:32;99936.88;;;22.32;48.89
8637;BME280;4356;49.068;8.658;2022-10-16T08:52:58;99935.47;;;22.29;48.84
8637;BME280;4356;49.068;8.658;2022-10-16T08:55:31;99940.44;;;22.32;48.94
8637;BME280;4356;49.068;8.658;2022-10-16T08:57:59;99947.34;;;22.35;48.45
8637;BME280;4356;49.068;8.658;2022-10-16T09:00:26;99951.72;;;22.36;48.48
8637;BME280;4356;49.068;8.658;2022-10-16T09:11:45;99970.09;;;22.52;48.21
8637;BME280;4356;49.068;8.658;2022-10-16T09:14:52;99975.72;;;22.57;49.02
8637;BME280;4356;49.068;8.658;2022-10-16T09:20:25;99982.28;;;22.73;48.43
8637;BME280;4356;49.068;8.658;2022-10-16T09:23:10;99977.72;;;22.78;48.56
8637;BME280;4356;49.068;8.658;2022-10-16T09:25:39;99977.53;;;22.85;48.27
8637;BME280;4356;49.068;8.658;2022-10-16T09:28:08;99982.56;;;22.88;48.32
8637;BME280;4356;49.068;8.658;2022-10-16T09:30:35;99979.72;;;22.83;47.70
8637;BME280;4356;49.068;8.658;2022-10-16T09:33:02;99996.84;;;22.90;47.97
8637;BME280;4356;49.068;8.658;2022-10-16T09:35:37;100002.91;;;22.92;48.75
8637;BME280;4356;49.068;8.658;2022-10-16T09:38:03;99996.72;;;22.85;48.71
8637;BME280;4356;49.068;8.658;2022-10-16T09:40:35;99998.31;;;22.81;48.77
8637;BME280;4356;49.068;8.658;2022-10-16T09:46:07;100013.28;;;22.90;48.96
8637;BME280;4356;49.068;8.658;2022-10-16T09:48:39;100013.88;;;22.92;48.72
8637;BME280;4356;49.068;8.658;2022-10-16T09:51:23;100019.34;;;22.92;48.83
8637;BME280;4356;49.068;8.658;2022-10-16T09:53:58;100019.44;;;22.97;48.77
8637;BME280;4356;49.068;8.658;2022-10-16T09:56:32;100023.88;;;23.03;48.83
8637;BME280;4356;49.068;8.658;2022-10-16T09:59:08;100028.66;;;23.07;48.59
8637;BME280;4356;49.068;8.658;2022-10-16T10:01:37;100030.53;;;23.07;48.34
8637;BME280;4356;49.068;8.658;2022-10-16T10:04:05;100035.63;;;23.15;48.09
8637;BME280;4356;49.068;8.658;2022-10-16T10:06:34;100028.47;;;23.14;48.48
8637;BME280;4356;49.068;8.658;2022-10-16T10:22:40;100050.75;;;23.51;47.93
8637;BME280;4356;49.068;8.658;2022-10-16T10:27:55;100051.34;;;23.53;47.16
8637;BME280;4356;49.068;8.658;2022-10-16T10:33:38;100046.19;;;23.56;46.96
8637;BME280;4356;49.068;8.658;2022-10-16T10:36:35;100042.13;;;23.59;47.23
8637;BME280;4356;49.068;8.658;2022-10-16T10:39:03;100032.28;;;23.63;47.51
8637;BME280;4356;49.068;8.658;2022-10-16T10:47:46;100034.97;;;23.79;46.50
8637;BME280;4356;49.068;8.658;2022-10-16T10:50:22;100039.47;;;23.85;46.76
8637;BME280;4356;49.068;8.658;2022-10-16T10:52:59;100037.88;;;23.89;46.58
8637;BME280;4356;49.068;8.658;2022-10-16T10:55:40;100039.03;;;23.93;46.36
8637;BME280;4356;49.068;8.658;2022-10-16T11:01:01;100024.06;;;24.01;46.32
8637;BME280;4356;49.068;8.658;2022-10-16T11:04:04;100035.13;;;24.06;46.07
8637;BME280;4356;49.068;8.658;2022-10-16T11:06:44;100031.84;;;24.09;45.91
8637;BME280;4356;49.068;8.658;2022-10-16T11:09:51;100032.75;;;24.14;46.59
8637;BME280;4356;49.068;8.658;2022-10-16T11:12:22;100037.97;;;24.16;45.92
8637;BME280;4356;49.068;8.658;2022-10-16T11:15:01;100035.25;;;24.16;46.18
8637;BME280;4356;49.068;8.658;2022-10-16T11:17:34;100034.97;;;24.17;46.06
8637;BME280;4356;49.068;8.658;2022-10-16T11:20:03;100045.13;;;24.17;45.65
8637;BME280;4356;49.068;8.658;2022-10-16T11:22:38;100036.06;;;24.16;46.11
8637;BME280;4356;49.068;8.658;2022-10-16T11:30:30;100023.16;;;24.17;45.73
8637;BME280;4356;49.068;8.658;2022-10-16T11:35:44;100030.91;;;24.20;45.98
8637;BME280;4356;49.068;8.658;2022-10-16T11:38:28;100027.31;;;24.19;45.91
8637;BME280;4356;49.068;8.658;2022-10-16T11:40:59;100030.06;;;24.19;45.41
8637;BME280;4356;49.068;8.658;2022-10-16T11:43:38;100029.53;;;24.22;45.31
8637;BME280;4356;49.068;8.658;2022-10-16T11:46:15;100024.31;;;24.21;45.12
8637;BME280;4356;49.068;8.658;2022-10-16T11:48:54;100018.81;;;24.21;45.35
8637;BME280;4356;49.068;8.658;2022-10-16T11:56:30;100010.56;;;24.21;45.15
8637;BME280;4356;49.068;8.658;2022-10-16T11:59:11;100016.38;;;24.24;45.15
8637;BME280;4356;49.068;8.658;2022-10-16T12:01:49;100022.72;;;24.25;45.00
8637;BME280;4356;49.068;8.658;2022-10-16T12:04:43;100030.44;;;24.28;45.59
8637;BME280;4356;49.068;8.658;2022-10-16T12:07:24;100022.72;;;24.25;45.21
8637;BME280;4356;49.068;8.658;2022-10-16T12:09:52;100010.88;;;24.24;45.40
8637;BME280;4356;49.068;8.658;2022-10-16T12:15:02;100012.31;;;24.27;45.55
8637;BME280;4356;49.068;8.658;2022-10-16T12:17:36;100015.63;;;24.29;45.74
8637;BME280;4356;49.068;8.658;2022-10-16T12:20:29;100015.94;;;24.32;46.00
8637;BME280;4356;49.068;8.658;2022-10-16T12:23:02;100019.75;;;24.31;45.44
8637;BME280;4356;49.068;8.658;2022-10-16T12:25:37;100027.75;;;24.33;45.99
8637;BME280;4356;49.068;8.658;2022-10-16T12:28:20;100021.44;;;24.32;45.73
8637;BME280;4356;49.068;8.658;2022-10-16T12:31:13;100012.34;;;24.32;46.10
8637;BME280;4356;49.068;8.658;2022-10-16T12:34:37;100014.03;;;24.33;46.51
8637;BME280;4356;49.068;8.658;2022-10-16T12:36:37;100006.84;;;24.32;45.55
8637;BME280;4356;49.068;8.658;2022-10-16T12:39:03;100006.03;;;24.31;46.16
8637;BME280;4356;49.068;8.658;2022-10-16T12:41:34;100016.78;;;24.33;46.25
8637;BME280;4356;49.068;8.658;2022-10-16T12:44:01;99997.16;;;24.24;46.24
8637;BME280;4356;49.068;8.658;2022-10-16T12:51:42;100015.41;;;24.35;46.10
8637;BME280;4356;49.068;8.658;2022-10-16T12:54:30;100013.50;;;24.36;45.92
8637;BME280;4356;49.068;8.658;2022-10-16T13:02:56;100016.78;;;24.33;46.22
8637;BME280;4356;49.068;8.658;2022-10-16T13:08:13;100030.00;;;24.36;45.87
8637;BME280;4356;49.068;8.658;2022-10-16T13:14:12;100020.84;;;24.30;45.31
8637;BME280;4356;49.068;8.658;2022-10-16T13:22:24;100030.75;;;24.31;45.28
8637;BME280;4356;49.068;8.658;2022-10-16T13:28:10;100037.66;;;24.34;45.30
8637;BME280;4356;49.068;8.658;2022-10-16T13:30:43;100039.56;;;24.33;45.82
8637;BME280;4356;49.068;8.658;2022-10-16T13:33:19;100044.25;;;24.33;45.68
8637;BME280;4356;49.068;8.658;2022-10-16T13:35:54;100029.63;;;24.27;46.62
8637;BME280;4356;49.068;8.658;2022-10-16T13:38:25;100030.75;;;24.31;46.51
8637;BME280;4356;49.068;8.658;2022-10-16T13:40:56;100033.50;;;24.31;46.96
8637;BME280;4356;49.068;8.658;2022-10-16T13:45:55;100032.94;;;24.29;46.86
8637;BME280;4356;49.068;8.658;2022-10-16T13:48:21;100015.00;;;24.22;46.86
8637;BME280;4356;49.068;8.658;2022-10-16T13:50:58;100011.41;;;24.21;47.38
8637;BME280;4356;49.068;8.658;2022-10-16T13:53:24;100008.09;;;24.19;47.30
8637;BME280;4356;49.068;8.658;2022-10-16T13:55:49;100029.34;;;24.29;47.39
8637;BME280;4356;49.068;8.658;2022-10-16T13:58:15;100022.44;;;24.26;47.63
8637;BME280;4356;49.068;8.658;2022-10-16T14:00:53;100021.06;;;24.24;47.85
8637;BME280;4356;49.068;8.658;2022-10-16T14:03:19;100027.38;;;24.24;47.60
8637;BME280;4356;49.068;8.658;2022-10-16T14:05:53;100023.56;;;24.25;48.06
8637;BME280;4356;49.068;8.658;2022-10-16T14:08:21;100029.53;;;24.22;48.12
8637;BME280;4356;49.068;8.658;2022-10-16T14:10:50;100024.31;;;24.21;48.32
8637;BME280;4356;49.068;8.658;2022-10-16T14:13:38;100026.78;;;24.22;48.31
8637;BME280;4356;49.068;8.658;2022-10-16T14:16:10;100029.53;;;24.22;48.28
8637;BME280;4356;49.068;8.658;2022-10-16T14:18:38;100019.34;;;24.18;48.37
8637;BME280;4356;49.068;8.658;2022-10-16T14:21:13;100024.56;;;24.19;48.39
8637;BME280;4356;49.068;8.658;2022-10-16T14:23:40;100028.16;;;24.20;48.15
8637;BME280;4356;49.068;8.658;2022-10-16T14:28:36;100020.94;;;24.14;48.25
8637;BME280;4356;49.068;8.658;2022-10-16T14:33:43;100021.50;;;24.16;48.12
8637;BME280;4356;49.068;8.658;2022-10-16T14:38:34;100021.50;;;24.16;48.45
8637;BME280;4356;49.068;8.658;2022-10-16T14:41:00;100006.00;;;24.05;48.30
8637;BME280;4356;49.068;8.658;2022-10-16T14:43:37;100014.59;;;24.13;48.76
8637;BME280;4356;49.068;8.658;2022-10-16T14:46:20;100011.31;;;24.11;49.01
8637;BME280;4356;49.068;8.658;2022-10-16T14:48:50;100014.53;;;24.08;48.73
8637;BME280;4356;49.068;8.658;2022-10-16T14:51:20;100021.19;;;24.12;48.78
8637;BME280;4356;49.068;8.658;2022-10-16T14:53:46;100016.78;;;24.11;48.66
8637;BME280;4356;49.068;8.658;2022-10-16T14:56:21;100015.13;;;24.10;48.82
8637;BME280;4356;49.068;8.658;2022-10-16T14:58:49;100018.69;;;24.11;48.99
8637;BME280;4356;49.068;8.658;2022-10-16T15:01:15;100011.78;;;24.08;48.96
8637;BME280;4356;49.068;8.658;2022-10-16T15:03:41;100025.25;;;24.10;49.02
8637;BME280;4356;49.068;8.658;2022-10-16T15:06:14;100027.78;;;24.11;49.06
8637;BME280;4356;49.068;8.658;2022-10-16T15:08:40;100023.34;;;24.10;49.18
8637;BME280;4356;49.068;8.658;2022-10-16T15:11:14;100025.03;;;24.11;49.45
8637;BME280;4356;49.068;8.658;2022-10-16T15:13:41;100020.59;;;24.10;48.83
8637;BME280;4356;49.068;8.658;2022-10-16T15:16:11;100024.78;;;24.13;49.01
8637;BME280;4356;49.068;8.658;2022-10-16T15:18:37;100026.69;;;24.12;49.13
8637;BME280;4356;49.068;8.658;2022-10-16T15:21:02;100030.25;;;24.13;49.35
8637;BME280;4356;49.068;8.658;2022-10-16T15:23:28;100025.03;;;24.11;49.17
8637;BME280;4356;49.068;8.658;2022-10-16T15:25:55;100028.09;;;24.15;49.33